sensor_id;sensor_type;location;lat;lon;timestamp;P1;durP1;ratioP1;P2;durP2;ratioP2
13171;SDS011;6651;53.200;10.432;2023-04-01T00:00:12;6.57;;;3.45;;
13171;SDS011;6651;53.200;10.432;2023-04-01T00:02:38;6.30;;;3.67;;
13171;SDS011;6651;53.200;10.432;2023-04-01T00:05:05;6.53;;;3.75;;
13171;SDS011;6651;53.200;10.432;2023-04-01T00:07:31;6.82;;;3.67;;
13171;SDS011;6651;53.200;10.432;2023-04-01T00:09:58;6.60;;;3.60;;
13171;SDS011;6651;53.200;10.432;2023-04-01T00:12:24;5.88;;;3.70;;
13171;SDS011;6651;53.200;10.432;2023-04-01T00:14:50;5.90;;;3.20;;
13171;SDS011;6651;53.200;10.432;2023-04-01T00:17:16;6.45;;;3.55;;
13171;SDS011;6651;53.200;10.432;2023-04-01T00:19:42;6.32;;;3.22;;
13171;SDS011;6651;53.200;10.432;2023-04-01T00:22:08;6.07;;;3.58;;
13171;SDS011;6651;53.200;10.432;2023-04-01T00:24:36;5.93;;;3.85;;
13171;SDS011;6651;53.200;10.432;2023-04-01T00:27:02;4.18;;;3.08;;
13171;SDS011;6651;53.200;10.432;2023-04-01T00:29:28;6.60;;;3.17;;
13171;SDS011;6651;53.200;10.432;2023-04-01T00:31:56;5.65;;;3.10;;
13171;SDS011;6651;53.200;10.432;2023-04-01T00:34:22;5.75;;;3.50;;
13171;SDS011;6651;53.200;10.432;2023-04-01T00:36:48;6.05;;;3.33;;
13171;SDS011;6651;53.200;10.432;2023-04-01T00:39:15;6.85;;;3.85;;
13171;SDS011;6651;53.200;10.432;2023-04-01T00:41:41;5.22;;;3.20;;
13171;SDS011;6651;53.200;10.432;2023-04-01T00:44:17;5.63;;;3.72;;
13171;SDS011;6651;53.200;10.432;2023-04-01T00:46:43;7.70;;;3.50;;
13171;SDS011;6651;53.200;10.432;2023-04-01T00:49:10;6.97;;;3.55;;
13171;SDS011;6651;53.200;10.432;2023-04-01T00:51:36;4.57;;;3.20;;
13171;SDS011;6651;53.200;10.432;2023-04-01T00:54:03;7.28;;;3.40;;
13171;SDS011;6651;53.200;10.432;2023-04-01T00:56:32;7.10;;;3.20;;
13171;SDS011;6651;53.200;10.432;2023-04-01T00:59:04;6.60;;;3.40;;
13171;SDS011;6651;53.200;10.432;2023-04-01T01:01:33;5.78;;;3.17;;
13171;SDS011;6651;53.200;10.432;2023-04-01T01:04:00;6.95;;;3.40;;
13171;SDS011;6651;53.200;10.432;2023-04-01T01:11:46;7.43;;;3.28;;
13171;SDS011;6651;53.200;10.432;2023-04-01T01:14:18;5.32;;;3.30;;
13171;SDS011;6651;53.200;10.432;2023-04-01T01:16:49;6.38;;;3.28;;
13171;SDS011;6651;53.200;10.432;2023-04-01T01:36:47;5.95;;;3.20;;
13171;SDS011;6651;53.200;10.432;2023-04-01T01:39:14;6.85;;;3.53;;
13171;SDS011;6651;53.200;10.432;2023-04-01T01:41:41;7.78;;;3.58;;
13171;SDS011;6651;53.200;10.432;2023-04-01T01:44:08;5.03;;;3.15;;
13171;SDS011;6651;53.200;10.432;2023-04-01T01:46:34;4.40;;;2.97;;
13171;SDS011;6651;53.200;10.432;2023-04-01T01:49:01;6.30;;;3.60;;
13171;SDS011;6651;53.200;10.432;2023-04-01T01:51:29;6.68;;;3.20;;
13171;SDS011;6651;53.200;10.432;2023-04-01T01:53:55;6.85;;;3.45;;
13171;SDS011;6651;53.200;10.432;2023-04-01T01:56:22;5.47;;;3.40;;
13171;SDS011;6651;53.200;10.432;2023-04-01T01:58:50;6.80;;;3.55;;
13171;SDS011;6651;53.200;10.432;2023-04-01T02:01:20;5.53;;;3.10;;
13171;SDS011;6651;53.200;10.432;2023-04-01T02:03:49;5.63;;;3.30;;
13171;SDS011;6651;53.200;10.432;2023-04-01T02:06:19;8.30;;;3.70;;
13171;SDS011;6651;53.200;10.432;2023-04-01T02:11:13;8.65;;;3.88;;
13171;SDS011;6651;53.200;10.432;2023-04-01T02:13:51;7.18;;;3.80;;
13171;SDS011;6651;53.200;10.432;2023-04-01T02:16:23;6.40;;;3.33;;
13171;SDS011;6651;53.200;10.432;2023-04-01T02:18:50;8.57;;;3.30;;
13171;SDS011;6651;53.200;10.432;2023-04-01T02:21:18;7.43;;;3.45;;
13171;SDS011;6651;53.200;10.432;2023-04-01T02:23:46;5.15;;;3.05;;
13171;SDS011;6651;53.200;10.432;2023-04-01T02:26:12;5.80;;;3.03;;
13171;SDS011;6651;53.200;10.432;2023-04-01T02:28:39;11.43;;;3.40;;
13171;SDS011;6651;53.200;10.432;2023-04-01T02:31:07;5.88;;;3.30;;
13171;SDS011;6651;53.200;10.432;2023-04-01T02:33:33;4.90;;;3.17;;
13171;SDS011;6651;53.200;10.432;2023-04-01T02:35:59;7.18;;;3.63;;
13171;SDS011;6651;53.200;10.432;2023-04-01T02:38:25;8.07;;;3.72;;
13171;SDS011;6651;53.200;10.432;2023-04-01T02:40:56;6.28;;;3.42;;
13171;SDS011;6651;53.200;10.432;2023-04-01T02:43:22;8.18;;;3.58;;
13171;SDS011;6651;53.200;10.432;2023-04-01T02:45:48;5.32;;;3.08;;
13171;SDS011;6651;53.200;10.432;2023-04-01T02:48:14;6.55;;;3.20;;
13171;SDS011;6651;53.200;10.432;2023-04-01T02:50:40;5.43;;;2.95;;
13171;SDS011;6651;53.200;10.432;2023-04-01T02:53:07;6.40;;;3.28;;
13171;SDS011;6651;53.200;10.432;2023-04-01T02:55:33;5.95;;;3.10;;
13171;SDS011;6651;53.200;10.432;2023-04-01T02:57:59;5.63;;;3.03;;
13171;SDS011;6651;53.200;10.432;2023-04-01T03:00:25;6.20;;;3.08;;
13171;SDS011;6651;53.200;10.432;2023-04-01T03:02:51;7.40;;;3.35;;
13171;SDS011;6651;53.200;10.432;2023-04-01T03:05:18;4.93;;;3.00;;
13171;SDS011;6651;53.200;10.432;2023-04-01T03:07:44;6.22;;;3.30;;
13171;SDS011;6651;53.200;10.432;2023-04-01T03:10:10;4.65;;;3.25;;
13171;SDS011;6651;53.200;10.432;2023-04-01T03:12:36;8.32;;;3.60;;
13171;SDS011;6651;53.200;10.432;2023-04-01T03:15:02;7.28;;;3.67;;
13171;SDS011;6651;53.200;10.432;2023-04-01T03:17:28;6.53;;;3.53;;
13171;SDS011;6651;53.200;10.432;2023-04-01T03:19:54;6.05;;;3.85;;
13171;SDS011;6651;53.200;10.432;2023-04-01T03:22:20;6.72;;;3.55;;
13171;SDS011;6651;53.200;10.432;2023-04-01T03:24:47;7.03;;;4.07;;
13171;SDS011;6651;53.200;10.432;2023-04-01T03:27:13;6.47;;;3.65;;
13171;SDS011;6651;53.200;10.432;2023-04-01T03:29:39;6.35;;;3.50;;
13171;SDS011;6651;53.200;10.432;2023-04-01T03:32:05;6.82;;;3.70;;
13171;SDS011;6651;53.200;10.432;2023-04-01T03:34:31;8.45;;;3.72;;
13171;SDS011;6651;53.200;10.432;2023-04-01T03:36:57;6.03;;;4.05;;
13171;SDS011;6651;53.200;10.432;2023-04-01T03:39:24;8.00;;;4.03;;
13171;SDS011;6651;53.200;10.432;2023-04-01T03:41:50;6.50;;;4.00;;
13171;SDS011;6651;53.200;10.432;2023-04-01T03:44:16;8.02;;;3.90;;
13171;SDS011;6651;53.200;10.432;2023-04-01T03:46:42;5.85;;;3.70;;
13171;SDS011;6651;53.200;10.432;2023-04-01T03:49:08;6.38;;;3.72;;
13171;SDS011;6651;53.200;10.432;2023-04-01T03:51:38;7.82;;;3.70;;
13171;SDS011;6651;53.200;10.432;2023-04-01T03:54:04;8.40;;;4.18;;
13171;SDS011;6651;53.200;10.432;2023-04-01T03:56:31;7.85;;;4.30;;
13171;SDS011;6651;53.200;10.432;2023-04-01T03:58:57;7.38;;;4.50;;
13171;SDS011;6651;53.200;10.432;2023-04-01T04:01:23;6.28;;;4.22;;
13171;SDS011;6651;53.200;10.432;2023-04-01T04:03:49;7.57;;;4.70;;
13171;SDS011;6651;53.200;10.432;2023-04-01T04:06:16;7.25;;;4.53;;
13171;SDS011;6651;53.200;10.432;2023-04-01T04:08:43;6.95;;;4.35;;
13171;SDS011;6651;53.200;10.432;2023-04-01T04:11:09;8.73;;;4.80;;
13171;SDS011;6651;53.200;10.432;2023-04-01T04:13:35;6.20;;;4.20;;
13171;SDS011;6651;53.200;10.432;2023-04-01T04:16:02;7.82;;;4.70;;
13171;SDS011;6651;53.200;10.432;2023-04-01T04:18:28;6.38;;;4.20;;
13171;SDS011;6651;53.200;10.432;2023-04-01T04:20:55;7.03;;;4.57;;
13171;SDS011;6651;53.200;10.432;2023-04-01T04:23:21;8.27;;;4.30;;
13171;SDS011;6651;53.200;10.432;2023-04-01T04:25:54;6.82;;;4.45;;
13171;SDS011;6651;53.200;10.432;2023-04-01T04:28:20;8.20;;;3.97;;
13171;SDS011;6651;53.200;10.432;2023-04-01T04:30:46;7.85;;;4.60;;
13171;SDS011;6651;53.200;10.432;2023-04-01T04:33:12;7.57;;;4.10;;
13171;SDS011;6651;53.200;10.432;2023-04-01T04:35:38;6.18;;;4.70;;
13171;SDS011;6651;53.200;10.432;2023-04-01T04:38:04;8.77;;;4.78;;
13171;SDS011;6651;53.200;10.432;2023-04-01T04:40:30;9.25;;;4.60;;
13171;SDS011;6651;53.200;10.432;2023-04-01T04:42:56;8.88;;;5.20;;
13171;SDS011;6651;53.200;10.432;2023-04-01T04:45:22;8.57;;;4.53;;
13171;SDS011;6651;53.200;10.432;2023-04-01T04:47:48;9.73;;;4.22;;
13171;SDS011;6651;53.200;10.432;2023-04-01T04:50:14;7.10;;;4.45;;
13171;SDS011;6651;53.200;10.432;2023-04-01T04:52:41;8.52;;;4.57;;
13171;SDS011;6651;53.200;10.432;2023-04-01T04:55:07;6.95;;;4.60;;
13171;SDS011;6651;53.200;10.432;2023-04-01T04:57:33;9.38;;;4.75;;
13171;SDS011;6651;53.200;10.432;2023-04-01T05:00:00;6.75;;;4.22;;
13171;SDS011;6651;53.200;10.432;2023-04-01T05:02:26;11.05;;;4.68;;
13171;SDS011;6651;53.200;10.432;2023-04-01T05:04:52;8.85;;;4.43;;
13171;SDS011;6651;53.200;10.432;2023-04-01T05:07:18;9.35;;;4.90;;
13171;SDS011;6651;53.200;10.432;2023-04-01T05:09:44;8.85;;;4.60;;
13171;SDS011;6651;53.200;10.432;2023-04-01T05:12:10;7.32;;;4.65;;
13171;SDS011;6651;53.200;10.432;2023-04-01T05:14:38;8.48;;;4.70;;
13171;SDS011;6651;53.200;10.432;2023-04-01T05:17:04;8.60;;;4.53;;
13171;SDS011;6651;53.200;10.432;2023-04-01T05:19:30;8.10;;;4.55;;
13171;SDS011;6651;53.200;10.432;2023-04-01T05:21:56;7.90;;;4.72;;
13171;SDS011;6651;53.200;10.432;2023-04-01T05:24:22;8.52;;;4.93;;
13171;SDS011;6651;53.200;10.432;2023-04-01T05:26:48;10.63;;;4.55;;
13171;SDS011;6651;53.200;10.432;2023-04-01T05:29:14;9.80;;;4.57;;
13171;SDS011;6651;53.200;10.432;2023-04-01T05:31:40;8.05;;;4.90;;
13171;SDS011;6651;53.200;10.432;2023-04-01T05:34:06;7.15;;;4.90;;
13171;SDS011;6651;53.200;10.432;2023-04-01T05:36:32;8.73;;;4.90;;
13171;SDS011;6651;53.200;10.432;2023-04-01T05:38:58;7.75;;;4.80;;
13171;SDS011;6651;53.200;10.432;2023-04-01T05:41:24;9.93;;;4.80;;
13171;SDS011;6651;53.200;10.432;2023-04-01T05:43:50;7.50;;;4.75;;
13171;SDS011;6651;53.200;10.432;2023-04-01T05:46:16;7.85;;;4.95;;
13171;SDS011;6651;53.200;10.432;2023-04-01T05:48:42;8.13;;;5.03;;
13171;SDS011;6651;53.200;10.432;2023-04-01T05:51:14;8.63;;;4.95;;
13171;SDS011;6651;53.200;10.432;2023-04-01T05:53:41;10.80;;;5.15;;
13171;SDS011;6651;53.200;10.432;2023-04-01T05:56:07;10.13;;;5.30;;
13171;SDS011;6651;53.200;10.432;2023-04-01T05:58:34;9.68;;;5.22;;
13171;SDS011;6651;53.200;10.432;2023-04-01T06:01:01;9.35;;;5.20;;
13171;SDS011;6651;53.200;10.432;2023-04-01T06:03:28;7.65;;;5.20;;
13171;SDS011;6651;53.200;10.432;2023-04-01T06:05:54;11.60;;;5.35;;
13171;SDS011;6651;53.200;10.432;2023-04-01T06:08:20;9.63;;;5.90;;
13171;SDS011;6651;53.200;10.432;2023-04-01T06:18:35;9.18;;;6.03;;
13171;SDS011;6651;53.200;10.432;2023-04-01T06:28:43;8.90;;;5.93;;
13171;SDS011;6651;53.200;10.432;2023-04-01T06:39:35;8.18;;;5.05;;
13171;SDS011;6651;53.200;10.432;2023-04-01T06:42:25;8.02;;;5.30;;
13171;SDS011;6651;53.200;10.432;2023-04-01T06:55:52;7.93;;;5.22;;
13171;SDS011;6651;53.200;10.432;2023-04-01T07:00:46;7.00;;;4.90;;
13171;SDS011;6651;53.200;10.432;2023-04-01T07:03:19;9.07;;;5.25;;
13171;SDS011;6651;53.200;10.432;2023-04-01T07:05:47;10.48;;;5.13;;
13171;SDS011;6651;53.200;10.432;2023-04-01T07:08:15;9.90;;;5.95;;
13171;SDS011;6651;53.200;10.432;2023-04-01T07:10:44;8.00;;;6.18;;
13171;SDS011;6651;53.200;10.432;2023-04-01T07:13:22;6.07;;;3.88;;
13171;SDS011;6651;53.200;10.432;2023-04-01T07:16:12;2.60;;;2.40;;
13171;SDS011;6651;53.200;10.432;2023-04-01T07:18:58;2.13;;;1.92;;
13171;SDS011;6651;53.200;10.432;2023-04-01T07:21:29;2.08;;;1.90;;
13171;SDS011;6651;53.200;10.432;2023-04-01T07:23:58;2.25;;;2.00;;
13171;SDS011;6651;53.200;10.432;2023-04-01T07:26:25;2.35;;;2.15;;
13171;SDS011;6651;53.200;10.432;2023-04-01T07:28:52;2.45;;;2.00;;
13171;SDS011;6651;53.200;10.432;2023-04-01T07:36:24;2.03;;;1.90;;
13171;SDS011;6651;53.200;10.432;2023-04-01T07:46:33;2.05;;;1.95;;
13171;SDS011;6651;53.200;10.432;2023-04-01T07:49:08;2.80;;;2.00;;
13171;SDS011;6651;53.200;10.432;2023-04-01T07:55:06;2.15;;;1.80;;
13171;SDS011;6651;53.200;10.432;2023-04-01T08:07:20;1.10;;;1.10;;
13171;SDS011;6651;53.200;10.432;2023-04-01T08:09:53;1.10;;;1.10;;
13171;SDS011;6651;53.200;10.432;2023-04-01T08:22:35;1.55;;;1.10;;
13171;SDS011;6651;53.200;10.432;2023-04-01T08:25:04;1.55;;;1.45;;
13171;SDS011;6651;53.200;10.432;2023-04-01T08:30:04;1.33;;;1.30;;
13171;SDS011;6651;53.200;10.432;2023-04-01T08:32:35;1.25;;;1.10;;
13171;SDS011;6651;53.200;10.432;2023-04-01T08:37:35;1.83;;;1.30;;
13171;SDS011;6651;53.200;10.432;2023-04-01T08:56:13;1.30;;;1.20;;
13171;SDS011;6651;53.200;10.432;2023-04-01T09:03:50;1.50;;;1.40;;
13171;SDS011;6651;53.200;10.432;2023-04-01T09:06:26;0.90;;;0.90;;
13171;SDS011;6651;53.200;10.432;2023-04-01T09:17:08;1.75;;;1.20;;
13171;SDS011;6651;53.200;10.432;2023-04-01T09:22:17;1.27;;;1.23;;
13171;SDS011;6651;53.200;10.432;2023-04-01T09:27:30;1.55;;;0.90;;
13171;SDS011;6651;53.200;10.432;2023-04-01T09:32:39;1.20;;;1.20;;
13171;SDS011;6651;53.200;10.432;2023-04-01T09:43:25;1.10;;;1.00;;
13171;SDS011;6651;53.200;10.432;2023-04-01T09:46:15;1.58;;;1.48;;
13171;SDS011;6651;53.200;10.432;2023-04-01T09:59:49;1.70;;;1.48;;
13171;SDS011;6651;53.200;10.432;2023-04-01T10:07:55;1.50;;;1.40;;
13171;SDS011;6651;53.200;10.432;2023-04-01T10:15:49;1.40;;;1.30;;
13171;SDS011;6651;53.200;10.432;2023-04-01T10:18:59;1.42;;;1.33;;
13171;SDS011;6651;53.200;10.432;2023-04-01T10:24:02;1.40;;;1.30;;
13171;SDS011;6651;53.200;10.432;2023-04-01T10:26:41;1.60;;;1.50;;
13171;SDS011;6651;53.200;10.432;2023-04-01T10:40:31;1.15;;;1.15;;
13171;SDS011;6651;53.200;10.432;2023-04-01T10:51:19;1.30;;;1.30;;
13171;SDS011;6651;53.200;10.432;2023-04-01T10:56:40;1.60;;;1.50;;
13171;SDS011;6651;53.200;10.432;2023-04-01T11:01:59;1.70;;;1.60;;
13171;SDS011;6651;53.200;10.432;2023-04-01T11:12:58;1.25;;;1.15;;
13171;SDS011;6651;53.200;10.432;2023-04-01T11:27:47;1.00;;;1.00;;
13171;SDS011;6651;53.200;10.432;2023-04-01T11:30:19;1.50;;;1.02;;
13171;SDS011;6651;53.200;10.432;2023-04-01T11:33:08;1.23;;;0.93;;
13171;SDS011;6651;53.200;10.432;2023-04-01T11:38:49;1.38;;;1.27;;
13171;SDS011;6651;53.200;10.432;2023-04-01T11:41:34;1.08;;;1.08;;
13171;SDS011;6651;53.200;10.432;2023-04-01T11:44:15;1.10;;;1.10;;
13171;SDS011;6651;53.200;10.432;2023-04-01T11:46:52;1.90;;;1.50;;
13171;SDS011;6651;53.200;10.432;2023-04-01T11:54:46;1.10;;;1.10;;
13171;SDS011;6651;53.200;10.432;2023-04-01T11:57:25;1.85;;;1.50;;
13171;SDS011;6651;53.200;10.432;2023-04-01T12:10:18;1.10;;;1.10;;
13171;SDS011;6651;53.200;10.432;2023-04-01T12:18:17;1.27;;;1.17;;
13171;SDS011;6651;53.200;10.432;2023-04-01T12:20:55;1.30;;;1.20;;
13171;SDS011;6651;53.200;10.432;2023-04-01T12:28:41;1.40;;;1.30;;
13171;SDS011;6651;53.200;10.432;2023-04-01T12:31:25;1.35;;;1.10;;
13171;SDS011;6651;53.200;10.432;2023-04-01T12:49:28;2.35;;;2.15;;
13171;SDS011;6651;53.200;10.432;2023-04-01T12:52:05;3.13;;;2.38;;
13171;SDS011;6651;53.200;10.432;2023-04-01T13:10:27;2.42;;;2.10;;
13171;SDS011;6651;53.200;10.432;2023-04-01T13:15:36;2.40;;;2.20;;
13171;SDS011;6651;53.200;10.432;2023-04-01T13:23:42;3.45;;;2.38;;
13171;SDS011;6651;53.200;10.432;2023-04-01T13:28:39;2.50;;;2.30;;
13171;SDS011;6651;53.200;10.432;2023-04-01T13:33:41;3.38;;;2.67;;
13171;SDS011;6651;53.200;10.432;2023-04-01T13:43:50;3.67;;;2.50;;
13171;SDS011;6651;53.200;10.432;2023-04-01T13:58:55;3.78;;;3.15;;
13171;SDS011;6651;53.200;10.432;2023-04-01T14:06:31;3.72;;;2.80;;
13171;SDS011;6651;53.200;10.432;2023-04-01T14:11:28;4.25;;;3.45;;
13171;SDS011;6651;53.200;10.432;2023-04-01T14:13:59;5.35;;;3.00;;
13171;SDS011;6651;53.200;10.432;2023-04-01T14:22:37;2.92;;;2.60;;
13171;SDS011;6651;53.200;10.432;2023-04-01T14:25:16;2.67;;;2.40;;
13171;SDS011;6651;53.200;10.432;2023-04-01T14:27:48;4.32;;;2.90;;
13171;SDS011;6651;53.200;10.432;2023-04-01T14:38:04;3.08;;;2.65;;
13171;SDS011;6651;53.200;10.432;2023-04-01T14:51:21;3.85;;;3.08;;
13171;SDS011;6651;53.200;10.432;2023-04-01T14:53:53;3.75;;;2.72;;
13171;SDS011;6651;53.200;10.432;2023-04-01T14:56:35;4.03;;;2.92;;
13171;SDS011;6651;53.200;10.432;2023-04-01T14:59:01;4.25;;;2.78;;
13171;SDS011;6651;53.200;10.432;2023-04-01T15:01:37;3.60;;;3.10;;
13171;SDS011;6651;53.200;10.432;2023-04-01T15:14:47;4.40;;;3.40;;
13171;SDS011;6651;53.200;10.432;2023-04-01T15:17:33;6.05;;;4.13;;
13171;SDS011;6651;53.200;10.432;2023-04-01T15:27:48;6.60;;;4.43;;
13171;SDS011;6651;53.200;10.432;2023-04-01T15:35:37;6.75;;;3.97;;
13171;SDS011;6651;53.200;10.432;2023-04-01T15:38:06;5.80;;;4.13;;
13171;SDS011;6651;53.200;10.432;2023-04-01T15:40:47;5.18;;;3.92;;
13171;SDS011;6651;53.200;10.432;2023-04-01T15:45:57;4.88;;;3.50;;
13171;SDS011;6651;53.200;10.432;2023-04-01T15:53:30;5.72;;;4.20;;
13171;SDS011;6651;53.200;10.432;2023-04-01T16:09:22;7.53;;;5.57;;
13171;SDS011;6651;53.200;10.432;2023-04-01T16:11:57;7.75;;;5.75;;
13171;SDS011;6651;53.200;10.432;2023-04-01T16:14:31;7.57;;;5.35;;
13171;SDS011;6651;53.200;10.432;2023-04-01T16:32:53;8.02;;;4.53;;
13171;SDS011;6651;53.200;10.432;2023-04-01T16:35:23;6.28;;;4.25;;
13171;SDS011;6651;53.200;10.432;2023-04-01T16:37:54;5.60;;;4.00;;
13171;SDS011;6651;53.200;10.432;2023-04-01T16:43:11;6.72;;;5.20;;
13171;SDS011;6651;53.200;10.432;2023-04-01T16:51:12;9.52;;;6.20;;
13171;SDS011;6651;53.200;10.432;2023-04-01T16:53:41;8.75;;;5.90;;
13171;SDS011;6651;53.200;10.432;2023-04-01T16:56:11;7.45;;;5.18;;
13171;SDS011;6651;53.200;10.432;2023-04-01T17:01:07;7.32;;;4.78;;
13171;SDS011;6651;53.200;10.432;2023-04-01T17:03:40;7.50;;;4.60;;
13171;SDS011;6651;53.200;10.432;2023-04-01T17:08:50;8.65;;;5.70;;
13171;SDS011;6651;53.200;10.432;2023-04-01T17:19:33;8.15;;;5.40;;
13171;SDS011;6651;53.200;10.432;2023-04-01T17:22:02;10.63;;;6.43;;
13171;SDS011;6651;53.200;10.432;2023-04-01T17:27:03;9.35;;;5.70;;
13171;SDS011;6651;53.200;10.432;2023-04-01T17:29:44;8.88;;;5.93;;
13171;SDS011;6651;53.200;10.432;2023-04-01T17:37:31;10.45;;;6.35;;
13171;SDS011;6651;53.200;10.432;2023-04-01T17:40:20;9.48;;;5.88;;
13171;SDS011;6651;53.200;10.432;2023-04-01T17:45:43;8.23;;;6.10;;
13171;SDS011;6651;53.200;10.432;2023-04-01T17:56:22;8.73;;;6.97;;
13171;SDS011;6651;53.200;10.432;2023-04-01T18:04:07;12.00;;;7.20;;
13171;SDS011;6651;53.200;10.432;2023-04-01T18:06:34;11.23;;;7.35;;
13171;SDS011;6651;53.200;10.432;2023-04-01T18:09:09;13.35;;;7.63;;
13171;SDS011;6651;53.200;10.432;2023-04-01T18:16:55;10.30;;;7.65;;
13171;SDS011;6651;53.200;10.432;2023-04-01T18:22:03;10.07;;;8.10;;
13171;SDS011;6651;53.200;10.432;2023-04-01T18:24:43;10.32;;;8.00;;
13171;SDS011;6651;53.200;10.432;2023-04-01T18:27:15;10.68;;;7.88;;
13171;SDS011;6651;53.200;10.432;2023-04-01T18:34:54;11.45;;;8.38;;
13171;SDS011;6651;53.200;10.432;2023-04-01T18:37:36;12.18;;;8.13;;
13171;SDS011;6651;53.200;10.432;2023-04-01T18:40:19;13.20;;;8.90;;
13171;SDS011;6651;53.200;10.432;2023-04-01T18:42:57;12.20;;;8.55;;
13171;SDS011;6651;53.200;10.432;2023-04-01T18:47:57;11.00;;;8.38;;
13171;SDS011;6651;53.200;10.432;2023-04-01T18:55:39;9.77;;;7.53;;
13171;SDS011;6651;53.200;10.432;2023-04-01T19:00:52;11.60;;;8.18;;
13171;SDS011;6651;53.200;10.432;2023-04-01T19:03:23;10.43;;;7.35;;
13171;SDS011;6651;53.200;10.432;2023-04-01T19:05:51;10.15;;;6.97;;
13171;SDS011;6651;53.200;10.432;2023-04-01T19:08:27;8.95;;;6.80;;
13171;SDS011;6651;53.200;10.432;2023-04-01T19:13:47;10.75;;;6.30;;
13171;SDS011;6651;53.200;10.432;2023-04-01T19:21:41;8.35;;;5.07;;
13171;SDS011;6651;53.200;10.432;2023-04-01T20:04:39;7.35;;;4.57;;
13171;SDS011;6651;53.200;10.432;2023-04-01T20:07:12;8.93;;;4.82;;
13171;SDS011;6651;53.200;10.432;2023-04-01T20:12:30;7.22;;;4.35;;
13171;SDS011;6651;53.200;10.432;2023-04-01T20:15:00;6.78;;;4.20;;
13171;SDS011;6651;53.200;10.432;2023-04-01T20:25:01;10.60;;;4.60;;
13171;SDS011;6651;53.200;10.432;2023-04-01T20:27:31;8.50;;;4.47;;
13171;SDS011;6651;53.200;10.432;2023-04-01T20:37:57;6.60;;;4.28;;
13171;SDS011;6651;53.200;10.432;2023-04-01T20:45:38;9.95;;;4.63;;
13171;SDS011;6651;53.200;10.432;2023-04-01T20:48:15;9.38;;;4.57;;
13171;SDS011;6651;53.200;10.432;2023-04-01T20:50:52;7.10;;;4.43;;
13171;SDS011;6651;53.200;10.432;2023-04-01T21:00:56;7.80;;;3.63;;
13171;SDS011;6651;53.200;10.432;2023-04-01T21:16:01;5.47;;;3.45;;
13171;SDS011;6651;53.200;10.432;2023-04-01T21:31:49;4.93;;;2.95;;
13171;SDS011;6651;53.200;10.432;2023-04-01T21:44:58;4.78;;;2.40;;
13171;SDS011;6651;53.200;10.432;2023-04-01T22:08:12;5.65;;;2.20;;
13171;SDS011;6651;53.200;10.432;2023-04-01T22:15:57;6.20;;;2.30;;
13171;SDS011;6651;53.200;10.432;2023-04-01T22:18:33;6.65;;;2.33;;
13171;SDS011;6651;53.200;10.432;2023-04-01T22:31:28;7.40;;;2.45;;
13171;SDS011;6651;53.200;10.432;2023-04-01T22:33:59;4.80;;;1.95;;
13171;SDS011;6651;53.200;10.432;2023-04-01T22:39:26;6.00;;;2.28;;
13171;SDS011;6651;53.200;10.432;2023-04-01T22:51:43;6.35;;;2.40;;
13171;SDS011;6651;53.200;10.432;2023-04-01T23:00:01;5.00;;;2.17;;
13171;SDS011;6651;53.200;10.432;2023-04-01T23:02:25;4.28;;;2.08;;
13171;SDS011;6651;53.200;10.432;2023-04-01T23:04:56;8.05;;;2.50;;
13171;SDS011;6651;53.200;10.432;2023-04-01T23:09:58;6.78;;;2.33;;
13171;SDS011;6651;53.200;10.432;2023-04-01T23:12:25;6.93;;;2.35;;
13171;SDS011;6651;53.200;10.432;2023-04-01T23:14:58;5.53;;;2.20;;
13171;SDS011;6651;53.200;10.432;2023-04-01T23:25:01;6.60;;;2.20;;
13171;SDS011;6651;53.200;10.432;2023-04-01T23:27:39;5.47;;;2.20;;
13171;SDS011;6651;53.200;10.432;2023-04-01T23:30:45;4.43;;;2.10;;
13171;SDS011;6651;53.200;10.432;2023-04-01T23:32:52;6.88;;;2.20;;
13171;SDS011;6651;53.200;10.432;2023-04-01T23:35:18;5.22;;;1.83;;
13171;SDS011;6651;53.200;10.432;2023-04-01T23:37:44;6.28;;;2.05;;
13171;SDS011;6651;53.200;10.432;2023-04-01T23:40:12;6.70;;;1.90;;
13171;SDS011;6651;53.200;10.432;2023-04-01T23:42:39;4.13;;;2.05;;
13171;SDS011;6651;53.200;10.432;2023-04-01T23:45:11;7.82;;;2.10;;
13171;SDS011;6651;53.200;10.432;2023-04-01T23:47:39;4.05;;;1.92;;
13171;SDS011;6651;53.200;10.432;2023-04-01T23:52:46;4.75;;;2.30;;
13171;SDS011;6651;53.200;10.432;2023-04-01T23:55:22;7.18;;;2.22;;
